sensor_id;sensor_type;location;lat;lon;timestamp;P1;durP1;ratioP1;P2;durP2;ratioP2
77430;SDS011;66498;48.564;19.272;2023-08-06T00:02:12;19.35;;;12.32;;
77430;SDS011;66498;48.564;19.272;2023-08-06T00:04:38;21.40;;;11.35;;
77430;SDS011;66498;48.564;19.272;2023-08-06T00:07:04;15.82;;;11.43;;
77430;SDS011;66498;48.564;19.272;2023-08-06T00:09:29;16.55;;;11.85;;
77430;SDS011;66498;48.564;19.272;2023-08-06T00:11:55;19.17;;;12.15;;
77430;SDS011;66498;48.564;19.272;2023-08-06T00:14:20;15.52;;;12.25;;
77430;SDS011;66498;48.564;19.272;2023-08-06T00:16:46;19.70;;;13.52;;
77430;SDS011;66498;48.564;19.272;2023-08-06T00:19:12;17.33;;;13.32;;
77430;SDS011;66498;48.564;19.272;2023-08-06T00:21:38;17.73;;;13.05;;
77430;SDS011;66498;48.564;19.272;2023-08-06T00:24:03;17.60;;;13.52;;
77430;SDS011;66498;48.564;19.272;2023-08-06T00:26:29;20.77;;;13.25;;
77430;SDS011;66498;48.564;19.272;2023-08-06T00:28:55;20.40;;;13.07;;
77430;SDS011;66498;48.564;19.272;2023-08-06T00:31:20;20.67;;;13.45;;
77430;SDS011;66498;48.564;19.272;2023-08-06T00:33:46;17.45;;;12.30;;
77430;SDS011;66498;48.564;19.272;2023-08-06T00:36:11;15.68;;;11.75;;
77430;SDS011;66498;48.564;19.272;2023-08-06T00:38:37;16.73;;;12.52;;
77430;SDS011;66498;48.564;19.272;2023-08-06T00:41:02;17.10;;;12.27;;
77430;SDS011;66498;48.564;19.272;2023-08-06T00:43:27;16.58;;;12.13;;
77430;SDS011;66498;48.564;19.272;2023-08-06T00:45:53;17.30;;;12.18;;
77430;SDS011;66498;48.564;19.272;2023-08-06T00:48:19;15.05;;;11.57;;
77430;SDS011;66498;48.564;19.272;2023-08-06T00:50:45;15.70;;;12.10;;
77430;SDS011;66498;48.564;19.272;2023-08-06T00:53:11;17.73;;;12.07;;
77430;SDS011;66498;48.564;19.272;2023-08-06T00:55:37;17.92;;;12.70;;
77430;SDS011;66498;48.564;19.272;2023-08-06T00:58:03;17.10;;;12.02;;
77430;SDS011;66498;48.564;19.272;2023-08-06T01:00:29;19.00;;;12.25;;
77430;SDS011;66498;48.564;19.272;2023-08-06T01:02:54;18.50;;;11.57;;
77430;SDS011;66498;48.564;19.272;2023-08-06T01:05:21;16.60;;;11.82;;
77430;SDS011;66498;48.564;19.272;2023-08-06T01:13:48;16.60;;;11.73;;
77430;SDS011;66498;48.564;19.272;2023-08-06T01:16:18;16.08;;;11.05;;
77430;SDS011;66498;48.564;19.272;2023-08-06T01:18:46;17.83;;;10.88;;
77430;SDS011;66498;48.564;19.272;2023-08-06T01:21:17;20.83;;;11.30;;
77430;SDS011;66498;48.564;19.272;2023-08-06T01:23:45;17.88;;;10.85;;
77430;SDS011;66498;48.564;19.272;2023-08-06T01:26:19;14.98;;;11.27;;
77430;SDS011;66498;48.564;19.272;2023-08-06T01:29:06;15.45;;;11.05;;
77430;SDS011;66498;48.564;19.272;2023-08-06T01:31:37;15.10;;;12.23;;
77430;SDS011;66498;48.564;19.272;2023-08-06T01:34:09;18.10;;;11.55;;
77430;SDS011;66498;48.564;19.272;2023-08-06T01:36:38;16.95;;;11.98;;
77430;SDS011;66498;48.564;19.272;2023-08-06T01:39:05;15.82;;;10.98;;
77430;SDS011;66498;48.564;19.272;2023-08-06T01:41:30;19.20;;;11.82;;
77430;SDS011;66498;48.564;19.272;2023-08-06T01:43:56;15.52;;;11.52;;
77430;SDS011;66498;48.564;19.272;2023-08-06T01:46:21;16.63;;;10.85;;
77430;SDS011;66498;48.564;19.272;2023-08-06T01:48:47;14.98;;;11.63;;
77430;SDS011;66498;48.564;19.272;2023-08-06T01:51:12;17.67;;;11.50;;
77430;SDS011;66498;48.564;19.272;2023-08-06T01:53:38;19.77;;;11.55;;
77430;SDS011;66498;48.564;19.272;2023-08-06T01:56:03;20.42;;;11.82;;
77430;SDS011;66498;48.564;19.272;2023-08-06T01:58:29;19.13;;;11.70;;
77430;SDS011;66498;48.564;19.272;2023-08-06T02:00:54;17.83;;;11.95;;
77430;SDS011;66498;48.564;19.272;2023-08-06T02:03:20;22.35;;;12.75;;
77430;SDS011;66498;48.564;19.272;2023-08-06T02:05:45;16.17;;;12.00;;
77430;SDS011;66498;48.564;19.272;2023-08-06T02:08:11;18.40;;;12.45;;
77430;SDS011;66498;48.564;19.272;2023-08-06T02:10:36;14.90;;;11.40;;
77430;SDS011;66498;48.564;19.272;2023-08-06T02:13:02;14.25;;;10.48;;
77430;SDS011;66498;48.564;19.272;2023-08-06T02:15:27;16.15;;;10.82;;
77430;SDS011;66498;48.564;19.272;2023-08-06T02:17:53;12.10;;;10.18;;
77430;SDS011;66498;48.564;19.272;2023-08-06T02:20:18;13.95;;;10.52;;
77430;SDS011;66498;48.564;19.272;2023-08-06T02:22:44;12.52;;;10.40;;
77430;SDS011;66498;48.564;19.272;2023-08-06T02:25:09;14.23;;;11.02;;
77430;SDS011;66498;48.564;19.272;2023-08-06T02:27:35;12.57;;;10.65;;
77430;SDS011;66498;48.564;19.272;2023-08-06T02:30:02;14.18;;;11.13;;
77430;SDS011;66498;48.564;19.272;2023-08-06T02:32:29;13.80;;;11.02;;
77430;SDS011;66498;48.564;19.272;2023-08-06T02:34:56;13.23;;;10.85;;
77430;SDS011;66498;48.564;19.272;2023-08-06T02:37:22;16.30;;;11.23;;
77430;SDS011;66498;48.564;19.272;2023-08-06T02:39:47;13.50;;;11.18;;
77430;SDS011;66498;48.564;19.272;2023-08-06T02:42:13;17.63;;;11.57;;
77430;SDS011;66498;48.564;19.272;2023-08-06T02:44:38;16.27;;;11.60;;
77430;SDS011;66498;48.564;19.272;2023-08-06T02:47:04;18.30;;;11.07;;
77430;SDS011;66498;48.564;19.272;2023-08-06T02:49:30;13.32;;;10.43;;
77430;SDS011;66498;48.564;19.272;2023-08-06T02:51:55;15.80;;;11.70;;
77430;SDS011;66498;48.564;19.272;2023-08-06T02:54:20;15.90;;;11.15;;
77430;SDS011;66498;48.564;19.272;2023-08-06T02:56:47;14.88;;;10.48;;
77430;SDS011;66498;48.564;19.272;2023-08-06T02:59:12;15.48;;;11.15;;
77430;SDS011;66498;48.564;19.272;2023-08-06T03:01:38;15.88;;;10.98;;
77430;SDS011;66498;48.564;19.272;2023-08-06T03:04:04;13.73;;;10.93;;
77430;SDS011;66498;48.564;19.272;2023-08-06T03:06:30;14.30;;;10.65;;
77430;SDS011;66498;48.564;19.272;2023-08-06T03:08:56;20.63;;;11.82;;
77430;SDS011;66498;48.564;19.272;2023-08-06T03:11:21;15.80;;;11.60;;
77430;SDS011;66498;48.564;19.272;2023-08-06T03:13:47;19.30;;;11.52;;
77430;SDS011;66498;48.564;19.272;2023-08-06T03:16:13;15.15;;;11.50;;
77430;SDS011;66498;48.564;19.272;2023-08-06T03:18:38;16.63;;;10.93;;
77430;SDS011;66498;48.564;19.272;2023-08-06T03:21:04;12.98;;;10.60;;
77430;SDS011;66498;48.564;19.272;2023-08-06T03:23:29;19.17;;;10.85;;
77430;SDS011;66498;48.564;19.272;2023-08-06T03:25:55;15.57;;;10.65;;
77430;SDS011;66498;48.564;19.272;2023-08-06T03:28:20;12.93;;;10.20;;
77430;SDS011;66498;48.564;19.272;2023-08-06T03:30:47;17.75;;;10.80;;
77430;SDS011;66498;48.564;19.272;2023-08-06T03:33:12;13.93;;;10.30;;
77430;SDS011;66498;48.564;19.272;2023-08-06T03:35:38;13.15;;;9.77;;
77430;SDS011;66498;48.564;19.272;2023-08-06T03:38:05;14.73;;;10.65;;
77430;SDS011;66498;48.564;19.272;2023-08-06T03:40:30;14.95;;;10.23;;
77430;SDS011;66498;48.564;19.272;2023-08-06T03:42:57;14.43;;;11.02;;
77430;SDS011;66498;48.564;19.272;2023-08-06T03:45:22;15.43;;;10.75;;
77430;SDS011;66498;48.564;19.272;2023-08-06T03:47:48;18.50;;;10.45;;
77430;SDS011;66498;48.564;19.272;2023-08-06T03:50:13;14.88;;;9.82;;
77430;SDS011;66498;48.564;19.272;2023-08-06T03:52:39;12.80;;;10.07;;
77430;SDS011;66498;48.564;19.272;2023-08-06T03:55:04;15.45;;;10.70;;
77430;SDS011;66498;48.564;19.272;2023-08-06T03:57:30;15.48;;;10.38;;
77430;SDS011;66498;48.564;19.272;2023-08-06T03:59:56;14.93;;;9.70;;
77430;SDS011;66498;48.564;19.272;2023-08-06T04:02:21;16.67;;;10.00;;
77430;SDS011;66498;48.564;19.272;2023-08-06T04:04:47;13.48;;;10.40;;
77430;SDS011;66498;48.564;19.272;2023-08-06T04:07:15;13.95;;;10.00;;
77430;SDS011;66498;48.564;19.272;2023-08-06T04:10:00;16.38;;;10.05;;
77430;SDS011;66498;48.564;19.272;2023-08-06T04:12:27;12.77;;;10.10;;
77430;SDS011;66498;48.564;19.272;2023-08-06T04:14:52;13.50;;;9.77;;
77430;SDS011;66498;48.564;19.272;2023-08-06T04:17:19;12.68;;;9.93;;
77430;SDS011;66498;48.564;19.272;2023-08-06T04:19:48;16.38;;;10.15;;
77430;SDS011;66498;48.564;19.272;2023-08-06T04:22:15;11.88;;;9.43;;
77430;SDS011;66498;48.564;19.272;2023-08-06T04:24:41;12.25;;;9.05;;
77430;SDS011;66498;48.564;19.272;2023-08-06T04:27:08;12.35;;;9.15;;
77430;SDS011;66498;48.564;19.272;2023-08-06T04:29:34;14.32;;;9.18;;
77430;SDS011;66498;48.564;19.272;2023-08-06T04:31:59;13.88;;;8.73;;
77430;SDS011;66498;48.564;19.272;2023-08-06T04:34:25;14.38;;;9.57;;
77430;SDS011;66498;48.564;19.272;2023-08-06T04:36:50;12.95;;;9.60;;
77430;SDS011;66498;48.564;19.272;2023-08-06T04:39:16;11.60;;;9.13;;
77430;SDS011;66498;48.564;19.272;2023-08-06T04:41:41;12.27;;;9.65;;
77430;SDS011;66498;48.564;19.272;2023-08-06T04:44:06;11.50;;;8.48;;
77430;SDS011;66498;48.564;19.272;2023-08-06T04:46:32;12.38;;;7.93;;
77430;SDS011;66498;48.564;19.272;2023-08-06T04:48:57;9.55;;;6.63;;
77430;SDS011;66498;48.564;19.272;2023-08-06T04:51:23;8.90;;;6.82;;
77430;SDS011;66498;48.564;19.272;2023-08-06T04:53:48;8.98;;;6.43;;
77430;SDS011;66498;48.564;19.272;2023-08-06T04:56:14;8.20;;;6.05;;
77430;SDS011;66498;48.564;19.272;2023-08-06T04:58:39;8.48;;;6.18;;
77430;SDS011;66498;48.564;19.272;2023-08-06T05:01:05;8.70;;;6.43;;
77430;SDS011;66498;48.564;19.272;2023-08-06T05:03:30;9.32;;;5.88;;
77430;SDS011;66498;48.564;19.272;2023-08-06T05:05:55;7.38;;;5.40;;
77430;SDS011;66498;48.564;19.272;2023-08-06T05:08:21;9.20;;;5.85;;
77430;SDS011;66498;48.564;19.272;2023-08-06T05:10:47;9.43;;;5.30;;
77430;SDS011;66498;48.564;19.272;2023-08-06T05:13:12;8.40;;;5.50;;
77430;SDS011;66498;48.564;19.272;2023-08-06T05:15:38;5.80;;;4.68;;
77430;SDS011;66498;48.564;19.272;2023-08-06T05:18:08;8.20;;;5.35;;
77430;SDS011;66498;48.564;19.272;2023-08-06T05:20:40;5.95;;;4.88;;
77430;SDS011;66498;48.564;19.272;2023-08-06T05:23:07;7.15;;;5.10;;
77430;SDS011;66498;48.564;19.272;2023-08-06T05:25:36;6.25;;;5.07;;
77430;SDS011;66498;48.564;19.272;2023-08-06T05:28:02;7.22;;;5.32;;
77430;SDS011;66498;48.564;19.272;2023-08-06T05:30:28;8.57;;;5.63;;
77430;SDS011;66498;48.564;19.272;2023-08-06T05:32:54;8.70;;;5.47;;
77430;SDS011;66498;48.564;19.272;2023-08-06T05:35:20;6.53;;;5.22;;
77430;SDS011;66498;48.564;19.272;2023-08-06T05:37:46;7.80;;;4.85;;
77430;SDS011;66498;48.564;19.272;2023-08-06T05:40:12;6.82;;;4.88;;
77430;SDS011;66498;48.564;19.272;2023-08-06T05:42:37;5.88;;;4.95;;
77430;SDS011;66498;48.564;19.272;2023-08-06T05:45:03;7.15;;;4.95;;
77430;SDS011;66498;48.564;19.272;2023-08-06T05:47:28;6.50;;;4.43;;
77430;SDS011;66498;48.564;19.272;2023-08-06T05:49:54;7.70;;;4.78;;
77430;SDS011;66498;48.564;19.272;2023-08-06T05:52:19;5.57;;;4.40;;
77430;SDS011;66498;48.564;19.272;2023-08-06T05:54:45;6.15;;;4.40;;
77430;SDS011;66498;48.564;19.272;2023-08-06T05:57:10;6.50;;;5.05;;
77430;SDS011;66498;48.564;19.272;2023-08-06T05:59:36;5.53;;;4.20;;
77430;SDS011;66498;48.564;19.272;2023-08-06T06:02:02;6.60;;;4.90;;
77430;SDS011;66498;48.564;19.272;2023-08-06T06:04:27;6.30;;;4.80;;
77430;SDS011;66498;48.564;19.272;2023-08-06T06:06:53;5.90;;;4.88;;
77430;SDS011;66498;48.564;19.272;2023-08-06T06:09:19;5.55;;;4.45;;
77430;SDS011;66498;48.564;19.272;2023-08-06T06:11:45;7.80;;;4.40;;
77430;SDS011;66498;48.564;19.272;2023-08-06T06:14:10;7.07;;;4.32;;
77430;SDS011;66498;48.564;19.272;2023-08-06T06:16:36;6.15;;;3.92;;
77430;SDS011;66498;48.564;19.272;2023-08-06T06:19:01;4.75;;;3.38;;
77430;SDS011;66498;48.564;19.272;2023-08-06T06:21:27;4.82;;;3.63;;
77430;SDS011;66498;48.564;19.272;2023-08-06T06:23:52;4.03;;;3.28;;
77430;SDS011;66498;48.564;19.272;2023-08-06T06:26:18;5.82;;;3.28;;
77430;SDS011;66498;48.564;19.272;2023-08-06T06:28:44;4.43;;;3.35;;
77430;SDS011;66498;48.564;19.272;2023-08-06T06:31:09;3.83;;;2.90;;
77430;SDS011;66498;48.564;19.272;2023-08-06T06:33:35;4.10;;;3.05;;
77430;SDS011;66498;48.564;19.272;2023-08-06T06:36:01;3.40;;;2.95;;
77430;SDS011;66498;48.564;19.272;2023-08-06T06:38:28;3.83;;;2.78;;
77430;SDS011;66498;48.564;19.272;2023-08-06T06:40:54;4.63;;;3.13;;
77430;SDS011;66498;48.564;19.272;2023-08-06T06:43:20;3.55;;;2.63;;
77430;SDS011;66498;48.564;19.272;2023-08-06T06:45:46;5.03;;;2.30;;
77430;SDS011;66498;48.564;19.272;2023-08-06T06:48:12;3.92;;;2.40;;
77430;SDS011;66498;48.564;19.272;2023-08-06T06:50:37;2.95;;;2.40;;
77430;SDS011;66498;48.564;19.272;2023-08-06T06:53:04;3.42;;;2.05;;
77430;SDS011;66498;48.564;19.272;2023-08-06T06:55:30;2.30;;;2.00;;
77430;SDS011;66498;48.564;19.272;2023-08-06T06:57:55;2.85;;;2.20;;
77430;SDS011;66498;48.564;19.272;2023-08-06T07:00:21;3.63;;;1.95;;
77430;SDS011;66498;48.564;19.272;2023-08-06T07:02:46;2.47;;;1.70;;
77430;SDS011;66498;48.564;19.272;2023-08-06T07:05:12;1.92;;;1.73;;
77430;SDS011;66498;48.564;19.272;2023-08-06T07:07:38;4.50;;;1.60;;
77430;SDS011;66498;48.564;19.272;2023-08-06T07:10:03;1.60;;;1.50;;
77430;SDS011;66498;48.564;19.272;2023-08-06T07:12:29;1.60;;;1.40;;
77430;SDS011;66498;48.564;19.272;2023-08-06T07:14:55;1.35;;;1.25;;
77430;SDS011;66498;48.564;19.272;2023-08-06T07:17:20;1.30;;;1.20;;
77430;SDS011;66498;48.564;19.272;2023-08-06T07:19:46;1.70;;;1.35;;
77430;SDS011;66498;48.564;19.272;2023-08-06T07:22:12;1.90;;;1.20;;
77430;SDS011;66498;48.564;19.272;2023-08-06T07:24:37;1.30;;;1.20;;
77430;SDS011;66498;48.564;19.272;2023-08-06T07:27:03;1.23;;;1.10;;
77430;SDS011;66498;48.564;19.272;2023-08-06T07:29:29;4.43;;;1.35;;
77430;SDS011;66498;48.564;19.272;2023-08-06T07:31:54;1.20;;;1.10;;
77430;SDS011;66498;48.564;19.272;2023-08-06T07:34:20;1.30;;;1.20;;
77430;SDS011;66498;48.564;19.272;2023-08-06T07:36:46;1.25;;;1.15;;
77430;SDS011;66498;48.564;19.272;2023-08-06T07:39:12;1.30;;;1.20;;
77430;SDS011;66498;48.564;19.272;2023-08-06T07:41:37;1.38;;;1.27;;
77430;SDS011;66498;48.564;19.272;2023-08-06T07:44:03;1.30;;;1.20;;
77430;SDS011;66498;48.564;19.272;2023-08-06T07:46:29;2.05;;;1.40;;
77430;SDS011;66498;48.564;19.272;2023-08-06T07:48:55;1.80;;;1.40;;
77430;SDS011;66498;48.564;19.272;2023-08-06T07:51:20;1.40;;;1.20;;
77430;SDS011;66498;48.564;19.272;2023-08-06T07:53:46;2.65;;;1.30;;
77430;SDS011;66498;48.564;19.272;2023-08-06T07:56:12;1.80;;;1.35;;
77430;SDS011;66498;48.564;19.272;2023-08-06T07:58:37;1.38;;;1.20;;
77430;SDS011;66498;48.564;19.272;2023-08-06T08:01:03;1.48;;;1.30;;
77430;SDS011;66498;48.564;19.272;2023-08-06T08:03:29;4.00;;;1.50;;
77430;SDS011;66498;48.564;19.272;2023-08-06T08:05:54;1.70;;;1.60;;
77430;SDS011;66498;48.564;19.272;2023-08-06T08:08:23;1.60;;;1.50;;
77430;SDS011;66498;48.564;19.272;2023-08-06T08:10:50;1.42;;;1.33;;
77430;SDS011;66498;48.564;19.272;2023-08-06T08:13:16;1.92;;;1.60;;
77430;SDS011;66498;48.564;19.272;2023-08-06T08:15:41;1.60;;;1.50;;
77430;SDS011;66498;48.564;19.272;2023-08-06T08:18:07;2.25;;;1.20;;
77430;SDS011;66498;48.564;19.272;2023-08-06T08:20:33;4.85;;;1.20;;
77430;SDS011;66498;48.564;19.272;2023-08-06T08:23:00;1.30;;;1.10;;
77430;SDS011;66498;48.564;19.272;2023-08-06T08:25:26;2.33;;;1.10;;
77430;SDS011;66498;48.564;19.272;2023-08-06T08:27:53;1.70;;;1.00;;
77430;SDS011;66498;48.564;19.272;2023-08-06T08:30:21;1.08;;;0.98;;
77430;SDS011;66498;48.564;19.272;2023-08-06T08:32:47;1.30;;;1.20;;
77430;SDS011;66498;48.564;19.272;2023-08-06T08:35:14;1.02;;;0.95;;
77430;SDS011;66498;48.564;19.272;2023-08-06T08:37:41;1.02;;;0.80;;
77430;SDS011;66498;48.564;19.272;2023-08-06T08:40:08;2.13;;;0.88;;
77430;SDS011;66498;48.564;19.272;2023-08-06T08:42:34;1.50;;;0.93;;
77430;SDS011;66498;48.564;19.272;2023-08-06T08:45:02;1.00;;;0.90;;
77430;SDS011;66498;48.564;19.272;2023-08-06T08:47:29;1.65;;;1.17;;
77430;SDS011;66498;48.564;19.272;2023-08-06T08:49:56;0.90;;;0.90;;
77430;SDS011;66498;48.564;19.272;2023-08-06T08:52:22;1.00;;;1.00;;
77430;SDS011;66498;48.564;19.272;2023-08-06T08:54:49;1.27;;;1.17;;
77430;SDS011;66498;48.564;19.272;2023-08-06T08:57:17;1.15;;;1.05;;
77430;SDS011;66498;48.564;19.272;2023-08-06T08:59:43;1.20;;;1.10;;
77430;SDS011;66498;48.564;19.272;2023-08-06T09:02:09;1.15;;;0.98;;
77430;SDS011;66498;48.564;19.272;2023-08-06T09:04:38;1.15;;;1.00;;
77430;SDS011;66498;48.564;19.272;2023-08-06T09:07:05;1.08;;;0.95;;
77430;SDS011;66498;48.564;19.272;2023-08-06T09:09:35;2.08;;;0.77;;
77430;SDS011;66498;48.564;19.272;2023-08-06T09:12:12;1.48;;;0.70;;
77430;SDS011;66498;48.564;19.272;2023-08-06T09:14:39;0.63;;;0.57;;
77430;SDS011;66498;48.564;19.272;2023-08-06T09:17:05;0.50;;;0.50;;
77430;SDS011;66498;48.564;19.272;2023-08-06T09:19:31;0.43;;;0.43;;
77430;SDS011;66498;48.564;19.272;2023-08-06T09:21:57;0.57;;;0.57;;
77430;SDS011;66498;48.564;19.272;2023-08-06T09:24:23;0.73;;;0.60;;
77430;SDS011;66498;48.564;19.272;2023-08-06T09:26:49;0.60;;;0.52;;
77430;SDS011;66498;48.564;19.272;2023-08-06T09:29:14;1.10;;;0.60;;
77430;SDS011;66498;48.564;19.272;2023-08-06T09:31:44;0.40;;;0.40;;
77430;SDS011;66498;48.564;19.272;2023-08-06T09:34:15;1.85;;;0.50;;
77430;SDS011;66498;48.564;19.272;2023-08-06T09:36:48;0.60;;;0.60;;
77430;SDS011;66498;48.564;19.272;2023-08-06T09:39:19;0.70;;;0.70;;
77430;SDS011;66498;48.564;19.272;2023-08-06T09:41:59;1.00;;;0.50;;
77430;SDS011;66498;48.564;19.272;2023-08-06T09:44:27;0.60;;;0.60;;
77430;SDS011;66498;48.564;19.272;2023-08-06T09:47:03;0.95;;;0.65;;
77430;SDS011;66498;48.564;19.272;2023-08-06T09:51:57;0.98;;;0.60;;
77430;SDS011;66498;48.564;19.272;2023-08-06T09:54:25;0.50;;;0.50;;
77430;SDS011;66498;48.564;19.272;2023-08-06T09:56:55;1.65;;;0.60;;
77430;SDS011;66498;48.564;19.272;2023-08-06T09:59:21;0.60;;;0.60;;
77430;SDS011;66498;48.564;19.272;2023-08-06T10:01:48;0.70;;;0.50;;
77430;SDS011;66498;48.564;19.272;2023-08-06T10:04:14;0.45;;;0.45;;
77430;SDS011;66498;48.564;19.272;2023-08-06T10:06:46;1.83;;;0.50;;
77430;SDS011;66498;48.564;19.272;2023-08-06T10:09:13;0.77;;;0.60;;
77430;SDS011;66498;48.564;19.272;2023-08-06T10:11:39;0.47;;;0.45;;
77430;SDS011;66498;48.564;19.272;2023-08-06T10:14:20;0.20;;;0.20;;
77430;SDS011;66498;48.564;19.272;2023-08-06T10:16:50;0.22;;;0.22;;
77430;SDS011;66498;48.564;19.272;2023-08-06T10:19:16;0.35;;;0.30;;
77430;SDS011;66498;48.564;19.272;2023-08-06T10:22:07;0.28;;;0.20;;
77430;SDS011;66498;48.564;19.272;2023-08-06T10:27:30;0.20;;;0.20;;
77430;SDS011;66498;48.564;19.272;2023-08-06T10:32:54;0.30;;;0.30;;
77430;SDS011;66498;48.564;19.272;2023-08-06T10:35:45;0.50;;;0.50;;
77430;SDS011;66498;48.564;19.272;2023-08-06T10:38:16;0.40;;;0.40;;
77430;SDS011;66498;48.564;19.272;2023-08-06T10:43:51;0.80;;;0.40;;
77430;SDS011;66498;48.564;19.272;2023-08-06T10:46:21;0.40;;;0.40;;
77430;SDS011;66498;48.564;19.272;2023-08-06T10:48:48;0.88;;;0.40;;
77430;SDS011;66498;48.564;19.272;2023-08-06T10:51:14;1.60;;;0.40;;
77430;SDS011;66498;48.564;19.272;2023-08-06T10:53:47;0.47;;;0.47;;
77430;SDS011;66498;48.564;19.272;2023-08-06T10:56:18;0.88;;;0.40;;
77430;SDS011;66498;48.564;19.272;2023-08-06T10:58:47;0.30;;;0.30;;
77430;SDS011;66498;48.564;19.272;2023-08-06T11:01:14;0.57;;;0.30;;
77430;SDS011;66498;48.564;19.272;2023-08-06T11:03:44;0.40;;;0.40;;
77430;SDS011;66498;48.564;19.272;2023-08-06T11:06:18;0.30;;;0.30;;
77430;SDS011;66498;48.564;19.272;2023-08-06T11:08:50;0.30;;;0.30;;
77430;SDS011;66498;48.564;19.272;2023-08-06T11:11:19;0.40;;;0.40;;
77430;SDS011;66498;48.564;19.272;2023-08-06T11:13:47;0.65;;;0.50;;
77430;SDS011;66498;48.564;19.272;2023-08-06T11:16:14;0.30;;;0.30;;
77430;SDS011;66498;48.564;19.272;2023-08-06T11:18:40;0.30;;;0.30;;
77430;SDS011;66498;48.564;19.272;2023-08-06T11:21:07;0.43;;;0.40;;
77430;SDS011;66498;48.564;19.272;2023-08-06T11:23:33;0.43;;;0.40;;
77430;SDS011;66498;48.564;19.272;2023-08-06T11:26:00;1.20;;;0.50;;
77430;SDS011;66498;48.564;19.272;2023-08-06T11:28:26;0.47;;;0.47;;
77430;SDS011;66498;48.564;19.272;2023-08-06T11:30:52;0.65;;;0.40;;
77430;SDS011;66498;48.564;19.272;2023-08-06T11:33:22;1.65;;;0.38;;
77430;SDS011;66498;48.564;19.272;2023-08-06T11:35:50;0.32;;;0.32;;
77430;SDS011;66498;48.564;19.272;2023-08-06T11:38:17;0.68;;;0.68;;
77430;SDS011;66498;48.564;19.272;2023-08-06T11:40:49;0.68;;;0.30;;
77430;SDS011;66498;48.564;19.272;2023-08-06T11:43:16;0.40;;;0.20;;
77430;SDS011;66498;48.564;19.272;2023-08-06T11:45:44;0.38;;;0.38;;
77430;SDS011;66498;48.564;19.272;2023-08-06T11:48:09;0.15;;;0.15;;
77430;SDS011;66498;48.564;19.272;2023-08-06T11:50:38;0.73;;;0.20;;
77430;SDS011;66498;48.564;19.272;2023-08-06T11:53:04;3.05;;;0.43;;
77430;SDS011;66498;48.564;19.272;2023-08-06T11:55:30;1.17;;;0.30;;
77430;SDS011;66498;48.564;19.272;2023-08-06T11:57:56;0.20;;;0.20;;
77430;SDS011;66498;48.564;19.272;2023-08-06T12:00:23;1.45;;;0.32;;
77430;SDS011;66498;48.564;19.272;2023-08-06T12:02:50;0.28;;;0.28;;
77430;SDS011;66498;48.564;19.272;2023-08-06T12:05:29;0.20;;;0.20;;
77430;SDS011;66498;48.564;19.272;2023-08-06T12:07:56;0.30;;;0.30;;
77430;SDS011;66498;48.564;19.272;2023-08-06T12:10:24;0.88;;;0.50;;
77430;SDS011;66498;48.564;19.272;2023-08-06T12:12:51;0.40;;;0.30;;
77430;SDS011;66498;48.564;19.272;2023-08-06T12:15:17;0.57;;;0.43;;
77430;SDS011;66498;48.564;19.272;2023-08-06T12:17:43;0.40;;;0.40;;
77430;SDS011;66498;48.564;19.272;2023-08-06T12:20:09;1.10;;;0.30;;
77430;SDS011;66498;48.564;19.272;2023-08-06T12:22:36;0.30;;;0.30;;
77430;SDS011;66498;48.564;19.272;2023-08-06T12:25:08;1.27;;;0.40;;
77430;SDS011;66498;48.564;19.272;2023-08-06T12:27:37;0.20;;;0.20;;
77430;SDS011;66498;48.564;19.272;2023-08-06T12:30:06;0.30;;;0.30;;
77430;SDS011;66498;48.564;19.272;2023-08-06T12:32:33;0.28;;;0.28;;
77430;SDS011;66498;48.564;19.272;2023-08-06T12:34:59;0.40;;;0.40;;
77430;SDS011;66498;48.564;19.272;2023-08-06T12:37:25;0.90;;;0.90;;
77430;SDS011;66498;48.564;19.272;2023-08-06T12:39:51;0.35;;;0.35;;
77430;SDS011;66498;48.564;19.272;2023-08-06T12:42:17;0.30;;;0.30;;
77430;SDS011;66498;48.564;19.272;2023-08-06T12:44:43;0.38;;;0.38;;
77430;SDS011;66498;48.564;19.272;2023-08-06T12:47:08;0.30;;;0.30;;
77430;SDS011;66498;48.564;19.272;2023-08-06T12:49:34;0.30;;;0.30;;
77430;SDS011;66498;48.564;19.272;2023-08-06T12:52:00;0.40;;;0.40;;
77430;SDS011;66498;48.564;19.272;2023-08-06T12:54:26;0.50;;;0.50;;
77430;SDS011;66498;48.564;19.272;2023-08-06T12:56:52;0.30;;;0.30;;
77430;SDS011;66498;48.564;19.272;2023-08-06T12:59:18;0.32;;;0.30;;
77430;SDS011;66498;48.564;19.272;2023-08-06T13:01:44;0.50;;;0.50;;
77430;SDS011;66498;48.564;19.272;2023-08-06T13:04:10;0.63;;;0.55;;
77430;SDS011;66498;48.564;19.272;2023-08-06T13:06:36;0.50;;;0.50;;
77430;SDS011;66498;48.564;19.272;2023-08-06T13:09:04;0.43;;;0.43;;
77430;SDS011;66498;48.564;19.272;2023-08-06T13:11:30;0.68;;;0.50;;
77430;SDS011;66498;48.564;19.272;2023-08-06T13:14:03;0.30;;;0.30;;
77430;SDS011;66498;48.564;19.272;2023-08-06T13:16:31;0.43;;;0.40;;
77430;SDS011;66498;48.564;19.272;2023-08-06T13:18:57;0.30;;;0.30;;
77430;SDS011;66498;48.564;19.272;2023-08-06T13:21:23;0.32;;;0.32;;
77430;SDS011;66498;48.564;19.272;2023-08-06T13:23:48;1.38;;;0.47;;
77430;SDS011;66498;48.564;19.272;2023-08-06T13:26:14;0.50;;;0.50;;
77430;SDS011;66498;48.564;19.272;2023-08-06T13:28:41;2.13;;;0.40;;
77430;SDS011;66498;48.564;19.272;2023-08-06T13:31:06;0.57;;;0.57;;
77430;SDS011;66498;48.564;19.272;2023-08-06T13:33:32;0.80;;;0.40;;
77430;SDS011;66498;48.564;19.272;2023-08-06T13:35:58;0.40;;;0.40;;
77430;SDS011;66498;48.564;19.272;2023-08-06T13:38:24;0.40;;;0.40;;
77430;SDS011;66498;48.564;19.272;2023-08-06T13:40:49;0.95;;;0.50;;
77430;SDS011;66498;48.564;19.272;2023-08-06T13:43:15;0.40;;;0.40;;
77430;SDS011;66498;48.564;19.272;2023-08-06T13:45:42;0.40;;;0.40;;
77430;SDS011;66498;48.564;19.272;2023-08-06T13:48:07;0.40;;;0.40;;
77430;SDS011;66498;48.564;19.272;2023-08-06T13:50:34;0.43;;;0.43;;
77430;SDS011;66498;48.564;19.272;2023-08-06T13:52:59;0.40;;;0.40;;
77430;SDS011;66498;48.564;19.272;2023-08-06T13:55:25;0.30;;;0.30;;
77430;SDS011;66498;48.564;19.272;2023-08-06T13:57:51;0.30;;;0.30;;
77430;SDS011;66498;48.564;19.272;2023-08-06T14:00:17;0.50;;;0.50;;
77430;SDS011;66498;48.564;19.272;2023-08-06T14:02:43;0.35;;;0.35;;
77430;SDS011;66498;48.564;19.272;2023-08-06T14:05:11;0.30;;;0.30;;
77430;SDS011;66498;48.564;19.272;2023-08-06T14:07:38;0.30;;;0.30;;
77430;SDS011;66498;48.564;19.272;2023-08-06T14:10:04;0.40;;;0.40;;
77430;SDS011;66498;48.564;19.272;2023-08-06T14:12:30;3.45;;;0.52;;
77430;SDS011;66498;48.564;19.272;2023-08-06T14:14:56;0.60;;;0.40;;
77430;SDS011;66498;48.564;19.272;2023-08-06T14:17:22;0.45;;;0.30;;
77430;SDS011;66498;48.564;19.272;2023-08-06T14:19:47;0.25;;;0.25;;
77430;SDS011;66498;48.564;19.272;2023-08-06T14:22:13;0.30;;;0.30;;
77430;SDS011;66498;48.564;19.272;2023-08-06T14:24:38;0.28;;;0.28;;
77430;SDS011;66498;48.564;19.272;2023-08-06T14:27:04;1.02;;;0.40;;
77430;SDS011;66498;48.564;19.272;2023-08-06T14:29:31;0.50;;;0.50;;
77430;SDS011;66498;48.564;19.272;2023-08-06T14:31:57;0.50;;;0.50;;
77430;SDS011;66498;48.564;19.272;2023-08-06T14:34:22;0.60;;;0.60;;
77430;SDS011;66498;48.564;19.272;2023-08-06T14:36:48;0.30;;;0.30;;
77430;SDS011;66498;48.564;19.272;2023-08-06T14:39:13;0.40;;;0.40;;
77430;SDS011;66498;48.564;19.272;2023-08-06T14:41:39;0.50;;;0.50;;